createdAt,value
2019-04-23T00:01:49.434Z,3.20
2019-04-23T00:04:10.423Z,2.70
2019-04-23T00:06:43.897Z,2.50
2019-04-23T00:09:15.521Z,2.63
2019-04-23T00:11:34.153Z,2.83
2019-04-23T00:14:02.768Z,3.03
2019-04-23T00:16:27.829Z,2.60
2019-04-23T00:18:46.058Z,2.90
2019-04-23T00:21:23.563Z,2.93
2019-04-23T00:23:47.879Z,2.77
2019-04-23T00:26:10.594Z,3.10
2019-04-23T00:28:37.412Z,3.00
2019-04-23T00:31:04.413Z,2.70
2019-04-23T00:35:50.157Z,3.00
2019-04-23T00:38:26.823Z,2.73
2019-04-23T00:40:47.375Z,3.30
2019-04-23T00:43:16.673Z,2.57
2019-04-23T00:48:09.305Z,3.47
2019-04-23T00:50:39.951Z,3.10
2019-04-23T00:52:57.608Z,3.10
2019-04-23T00:55:26.494Z,2.93
2019-04-23T00:57:50.513Z,3.03
2019-04-23T01:02:49.351Z,3.40
2019-04-23T01:05:10.286Z,3.23
2019-04-23T01:07:42.958Z,3.70
2019-04-23T01:10:02.751Z,3.80
2019-04-23T01:12:31.216Z,3.47
2019-04-23T01:14:56.355Z,3.40
2019-04-23T01:17:26.185Z,3.80
2019-04-23T01:19:51.793Z,3.40
2019-04-23T01:21:51.516Z,3.60
2019-04-23T01:24:23.215Z,3.87
2019-04-23T01:27:30.341Z,3.70
2019-04-23T01:29:38.884Z,4.33
2019-04-23T01:31:57.094Z,3.30
2019-04-23T01:34:31.331Z,3.70
2019-04-23T01:36:56.455Z,4.20
2019-04-23T01:39:23.118Z,4.00
2019-04-23T01:41:53.767Z,4.50
2019-04-23T01:44:14.360Z,4.27
2019-04-23T01:46:42.114Z,4.33
2019-04-23T01:49:07.863Z,4.00
2019-04-23T01:51:40.024Z,4.43
2019-04-23T01:53:59.697Z,4.80
2019-04-23T01:56:25.905Z,4.70
2019-04-23T01:58:57.385Z,4.80
2019-04-23T02:01:19.126Z,4.23
2019-04-23T02:03:48.550Z,4.53
2019-04-23T02:06:14.794Z,4.37
2019-04-23T02:08:40.503Z,4.53
2019-04-23T02:11:09.731Z,4.53
2019-04-23T02:13:36.335Z,3.97
2019-04-23T02:15:53.407Z,4.37
2019-04-23T02:18:20.586Z,4.07
2019-04-23T02:20:48.006Z,4.47
2019-04-23T02:23:19.654Z,4.63
2019-04-23T02:25:44.060Z,4.40
2019-04-23T02:28:09.102Z,5.10
2019-04-23T02:40:37.782Z,4.27
2019-04-23T02:43:00.837Z,4.90
2019-04-23T02:45:21.949Z,4.97
2019-04-23T02:48:10.759Z,4.93
2019-04-23T02:50:33.178Z,4.87
2019-04-23T02:57:29.744Z,5.27
2019-04-23T03:04:50.617Z,4.90
2019-04-23T03:12:18.470Z,5.40
2019-04-23T03:14:32.798Z,5.67
2019-04-23T03:16:58.412Z,4.97
2019-04-23T03:19:29.603Z,4.77
2019-04-23T03:21:57.664Z,5.03
2019-04-23T03:26:57.420Z,4.70
2019-04-23T03:35:09.745Z,5.07
2019-04-23T03:36:39.810Z,4.90
2019-04-23T03:48:47.849Z,5.10
2019-04-23T03:51:01.282Z,5.10
2019-04-23T03:53:45.777Z,5.23
2019-04-23T03:58:28.297Z,5.10
2019-04-23T04:00:58.449Z,5.43
2019-04-23T04:05:45.702Z,4.97
2019-04-23T04:10:44.603Z,5.13
2019-04-23T04:20:24.830Z,5.57
2019-04-23T04:25:14.388Z,5.03
2019-04-23T04:27:47.928Z,4.87
2019-04-23T04:30:10.774Z,5.07
2019-04-23T04:32:33.608Z,5.30
2019-04-23T04:37:40.438Z,5.10
2019-04-23T04:40:10.863Z,5.23
2019-04-23T04:44:56.789Z,4.87
2019-04-23T04:47:15.807Z,5.10
2019-04-23T04:49:44.432Z,4.57
2019-04-23T04:52:14.156Z,4.70
2019-04-23T04:54:24.191Z,5.67
2019-04-23T04:56:49.798Z,4.63
2019-04-23T04:59:18.157Z,4.53
2019-04-23T05:01:51.667Z,4.63
2019-04-23T05:06:44.283Z,5.00
2019-04-23T05:11:44.271Z,5.20
2019-04-23T05:14:08.542Z,5.10
2019-04-23T05:16:21.477Z,5.17
2019-04-23T05:18:49.421Z,4.87
2019-04-23T05:21:32.101Z,5.20
2019-04-23T05:23:43.289Z,4.53
2019-04-23T05:26:11.806Z,4.77
2019-04-23T05:28:40.928Z,4.97
2019-04-23T05:31:01.648Z,4.80
2019-04-23T05:33:21.922Z,4.03
2019-04-23T05:38:31.494Z,4.77
2019-04-23T05:41:03.279Z,4.97
2019-04-23T05:43:08.622Z,4.80
2019-04-23T05:45:34.755Z,4.70
2019-04-23T05:48:11.655Z,4.80
2019-04-23T05:50:37.967Z,4.20
2019-04-23T05:52:59.496Z,5.10
2019-04-23T05:55:18.718Z,4.30
2019-04-23T05:57:47.457Z,4.40
2019-04-23T06:00:19.844Z,4.00
2019-04-23T06:02:46.011Z,4.57
2019-04-23T06:05:03.831Z,5.20
2019-04-23T06:10:02.292Z,4.70
2019-04-23T06:12:18.721Z,4.80
2019-04-23T06:14:53.794Z,5.03
2019-04-23T06:17:17.776Z,4.90
2019-04-23T06:19:47.151Z,4.10
2019-04-23T06:24:35.086Z,5.03
2019-04-23T06:27:01.669Z,4.27
2019-04-23T06:29:32.131Z,4.47
2019-04-23T06:34:24.702Z,4.90
2019-04-23T06:36:46.511Z,4.90
2019-04-23T06:41:41.053Z,4.90
2019-04-23T06:44:14.452Z,4.83
2019-04-23T06:46:29.096Z,4.90
2019-04-23T06:48:56.729Z,4.63
2019-04-23T06:51:27.175Z,4.33
2019-04-23T06:53:45.065Z,4.80
2019-04-23T06:56:19.142Z,4.90
2019-04-23T06:58:37.488Z,5.00
2019-04-23T07:01:04.891Z,5.10
2019-04-23T07:03:38.883Z,4.53
2019-04-23T07:06:11.491Z,4.80
2019-04-23T07:08:39.892Z,4.83
2019-04-23T07:10:54.311Z,4.33
2019-04-23T07:13:21.421Z,4.43
2019-04-23T07:15:48.350Z,5.03
2019-04-23T07:18:08.712Z,4.60
2019-04-23T07:20:36.018Z,5.00
2019-04-23T07:23:04.900Z,4.50
2019-04-23T07:25:29.322Z,4.97
2019-04-23T07:27:48.975Z,4.67
2019-04-23T07:32:43.386Z,4.73
2019-04-23T07:37:43.074Z,4.43
2019-04-23T07:40:19.964Z,4.83
2019-04-23T07:42:34.411Z,5.03
2019-04-23T07:44:56.502Z,5.00
2019-04-23T07:50:04.117Z,4.70
2019-04-23T07:52:20.251Z,5.17
2019-04-23T07:54:44.107Z,5.30
2019-04-23T07:57:17.206Z,5.50
2019-04-23T07:59:47.092Z,4.67
2019-04-23T08:02:08.133Z,4.70
2019-04-23T08:04:31.731Z,5.13
2019-04-23T08:06:52.092Z,5.07
2019-04-23T08:09:17.580Z,5.07
2019-04-23T08:12:04.756Z,4.90
2019-04-23T08:14:27.617Z,5.07
2019-04-23T08:18:57.779Z,4.93
2019-04-23T08:21:29.602Z,4.70
2019-04-23T08:24:05.868Z,5.10
2019-04-23T08:26:29.557Z,4.70
2019-04-23T08:28:58.461Z,4.87
2019-04-23T08:31:19.356Z,4.93
2019-04-23T08:33:45.125Z,5.23
2019-04-23T08:41:10.239Z,4.87
2019-04-23T08:45:47.859Z,5.00
2019-04-23T08:48:21.751Z,5.17
2019-04-23T08:51:04.294Z,4.80
2019-04-23T08:53:26.386Z,4.80
2019-04-23T08:55:38.520Z,4.70
2019-04-23T08:57:56.389Z,4.57
2019-04-23T09:00:32.662Z,4.50
2019-04-23T09:03:02.769Z,4.67
2019-04-23T09:05:23.499Z,5.00
2019-04-23T09:07:57.256Z,4.50
2019-04-23T09:10:23.331Z,4.53
2019-04-23T09:12:45.957Z,4.40
2019-04-23T09:15:07.150Z,4.50
2019-04-23T09:17:36.089Z,4.47
2019-04-23T09:20:11.833Z,4.40
2019-04-23T09:24:55.717Z,5.10
2019-04-23T09:27:23.287Z,4.43
2019-04-23T09:29:51.410Z,4.67
2019-04-23T09:32:22.405Z,4.40
2019-04-23T09:34:43.271Z,4.60
2019-04-23T09:37:05.007Z,3.90
2019-04-23T09:39:30.756Z,4.87
2019-04-23T09:41:51.527Z,4.53
2019-04-23T09:44:45.771Z,4.60
2019-04-23T09:46:57.381Z,3.67
2019-04-23T09:54:09.487Z,4.77
2019-04-23T09:56:37.790Z,3.60
2019-04-23T09:59:07.134Z,4.17
2019-04-23T10:01:29.160Z,4.43
2019-04-23T10:03:39.029Z,4.20
2019-04-23T10:05:59.744Z,4.27
2019-04-23T10:08:24.207Z,4.13
2019-04-23T10:10:42.475Z,3.83
2019-04-23T10:13:08.495Z,4.10
2019-04-23T10:15:40.171Z,4.17
2019-04-23T10:18:02.506Z,4.10
2019-04-23T10:20:28.955Z,3.83
2019-04-23T10:22:56.516Z,4.23
2019-04-23T10:25:21.072Z,3.80
2019-04-23T10:27:53.232Z,4.03
2019-04-23T10:30:14.471Z,4.13
2019-04-23T10:32:40.094Z,3.53
2019-04-23T10:35:19.088Z,4.30
2019-04-23T10:37:42.693Z,3.73
2019-04-23T10:40:02.761Z,3.60
2019-04-23T10:42:26.622Z,3.80
2019-04-23T10:44:55.431Z,4.23
2019-04-23T10:47:45.258Z,3.50
2019-04-23T10:50:20.469Z,3.90
2019-04-23T10:53:04.632Z,3.50
2019-04-23T10:54:59.033Z,3.80
2019-04-23T10:57:31.182Z,4.07
2019-04-23T10:59:47.360Z,3.87
2019-04-23T11:02:32.883Z,4.00
2019-04-23T11:07:26.365Z,4.07
2019-04-23T11:09:50.278Z,3.83
2019-04-23T11:12:14.390Z,4.17
2019-04-23T11:14:42.206Z,4.30
2019-04-23T11:17:19.376Z,4.20
2019-04-23T11:19:31.965Z,4.13
2019-04-23T11:21:56.100Z,3.90
2019-04-23T11:24:32.449Z,4.13
2019-04-23T11:26:42.980Z,4.63
2019-04-23T11:29:17.394Z,3.93
2019-04-23T11:36:49.874Z,3.70
2019-04-23T11:41:25.136Z,3.83
2019-04-23T11:43:48.567Z,3.63
2019-04-23T11:51:41.103Z,3.53
2019-04-23T11:53:41.006Z,3.60
2019-04-23T11:56:02.612Z,3.97
2019-04-23T12:03:06.257Z,4.00
2019-04-23T12:08:21.193Z,4.20
2019-04-23T12:11:00.561Z,3.50
2019-04-23T12:13:08.144Z,4.03
2019-04-23T12:17:54.195Z,4.17
2019-04-23T12:20:25.354Z,4.10
2019-04-23T12:22:51.788Z,4.00
2019-04-23T12:27:33.159Z,3.70
2019-04-23T12:30:08.341Z,3.60
2019-04-23T12:35:16.707Z,4.33
2019-04-23T12:37:33.313Z,3.90
2019-04-23T12:39:49.507Z,4.33
2019-04-23T12:42:38.928Z,3.60
2019-04-23T12:44:51.675Z,3.90
2019-04-23T12:47:18.799Z,4.00
2019-04-23T12:49:53.090Z,4.20
2019-04-23T12:52:02.394Z,4.00
2019-04-23T12:54:47.820Z,3.80
2019-04-23T12:57:14.748Z,3.83
2019-04-23T12:59:23.460Z,4.13
2019-04-23T13:01:49.677Z,3.63
2019-04-23T13:04:09.689Z,3.40
2019-04-23T13:06:41.076Z,3.67
2019-04-23T13:09:16.498Z,3.77
2019-04-23T13:14:00.407Z,3.93
2019-04-23T13:16:37.665Z,3.47
2019-04-23T13:18:49.777Z,3.87
2019-04-23T13:21:38.389Z,3.60
2019-04-23T13:23:41.131Z,3.80
2019-04-23T13:25:59.816Z,3.53
2019-04-23T13:28:31.970Z,4.00
2019-04-23T13:33:35.506Z,4.00
2019-04-23T13:36:01.106Z,4.13
2019-04-23T13:38:27.526Z,3.43
2019-04-23T13:43:20.187Z,4.27
2019-04-23T13:46:01.549Z,4.07
2019-04-23T13:50:49.686Z,3.53
2019-04-23T13:55:17.271Z,3.60
2019-04-23T14:00:28.661Z,3.30
2019-04-23T14:02:43.407Z,3.77
2019-04-23T14:07:41.848Z,3.87
2019-04-23T14:10:13.150Z,3.93
2019-04-23T14:12:40.336Z,4.13
2019-04-23T14:15:01.383Z,3.83
2019-04-23T14:19:45.653Z,4.20
2019-04-23T14:22:31.151Z,4.53
2019-04-23T14:27:10.985Z,3.90
2019-04-23T14:29:38.865Z,4.27
2019-04-23T14:32:05.050Z,4.17
2019-04-23T14:34:35.333Z,4.47
2019-04-23T14:36:55.721Z,4.00
2019-04-23T14:39:21.559Z,3.90
2019-04-23T14:41:45.018Z,3.80
2019-04-23T14:53:47.886Z,4.40
2019-04-23T14:58:55.547Z,3.90
2019-04-23T15:08:39.867Z,4.07
2019-04-23T15:11:11.592Z,3.77
2019-04-23T15:13:41.303Z,3.47
2019-04-23T15:15:58.401Z,4.50
2019-04-23T15:18:25.027Z,4.00
2019-04-23T15:20:46.438Z,4.13
2019-04-23T15:23:29.202Z,3.97
2019-04-23T15:30:24.769Z,4.10
2019-04-23T15:33:03.887Z,4.43
2019-04-23T15:38:15.643Z,3.53
2019-04-23T15:40:19.819Z,4.10
2019-04-23T15:42:43.895Z,3.97
2019-04-23T15:47:32.891Z,4.03
2019-04-23T15:50:10.879Z,4.00
2019-04-23T15:52:30.271Z,4.90
2019-04-23T15:54:55.299Z,4.00
2019-04-23T15:57:28.369Z,4.37
2019-04-23T15:59:51.974Z,4.00
2019-04-23T16:01:43.553Z,3.80
2019-04-23T16:04:09.756Z,4.60
2019-04-23T16:06:36.879Z,4.20
2019-04-23T16:09:16.367Z,4.37
2019-04-23T16:11:47.845Z,4.33
2019-04-23T16:19:17.666Z,4.30
2019-04-23T16:21:48.376Z,4.10
2019-04-23T16:24:06.026Z,3.93
2019-04-23T16:29:20.500Z,4.67
2019-04-23T16:31:27.617Z,4.60
2019-04-23T16:33:54.340Z,4.07
2019-04-23T16:36:21.551Z,4.23
2019-04-23T16:41:11.279Z,4.43
2019-04-23T16:43:38.248Z,4.60
2019-04-23T16:46:02.749Z,4.33
2019-04-23T16:48:47.848Z,4.50
2019-04-23T16:53:21.444Z,4.50
2019-04-23T16:55:47.492Z,4.47
2019-04-23T16:58:23.232Z,4.73
2019-04-23T17:03:11.193Z,4.70
2019-04-23T17:05:34.171Z,4.97
2019-04-23T17:08:21.906Z,4.50
2019-04-23T17:10:29.535Z,5.17
2019-04-23T17:12:54.746Z,4.20
2019-04-23T17:15:27.348Z,4.70
2019-04-23T17:17:51.050Z,5.07
2019-04-23T17:20:25.746Z,4.67
2019-04-23T17:22:38.631Z,4.83
2019-04-23T17:25:15.969Z,4.93
2019-04-23T17:29:58.026Z,5.27
2019-04-23T17:32:38.497Z,5.90
2019-04-23T17:35:02.929Z,5.37
2019-04-23T17:39:46.973Z,5.40
2019-04-23T17:44:47.009Z,5.50
2019-04-23T17:47:02.705Z,5.47
2019-04-23T17:49:33.288Z,5.17
2019-04-23T17:51:55.858Z,6.27
2019-04-23T17:56:54.141Z,5.10
2019-04-23T17:59:20.539Z,5.30
2019-04-23T18:01:47.587Z,5.67
2019-04-23T18:11:23.041Z,5.60
2019-04-23T18:13:50.548Z,5.77
2019-04-23T18:16:30.757Z,5.90
2019-04-23T18:18:53.332Z,5.97
2019-04-23T18:21:29.420Z,6.13
2019-04-23T18:23:37.970Z,6.03
2019-04-23T18:25:58.129Z,5.73
2019-04-23T18:28:26.059Z,5.80
2019-04-23T18:30:56.647Z,5.73
2019-04-23T18:33:51.212Z,6.13
2019-04-23T18:35:37.780Z,6.17
2019-04-23T18:38:18.507Z,5.67
2019-04-23T18:40:56.073Z,5.80
2019-04-23T18:45:31.626Z,6.27
2019-04-23T18:48:10.173Z,6.37
2019-04-23T18:50:29.130Z,5.80
2019-04-23T18:55:24.341Z,6.13
2019-04-23T18:57:48.840Z,6.23
2019-04-23T19:00:21.394Z,5.83
2019-04-23T19:02:44.889Z,5.60
2019-04-23T19:07:43.187Z,6.77
2019-04-23T19:10:13.236Z,6.07
2019-04-23T19:12:26.565Z,6.07
2019-04-23T19:14:53.563Z,7.20
2019-04-23T19:19:46.497Z,6.40
2019-04-23T19:24:34.567Z,6.53
2019-04-23T19:27:10.685Z,6.63
2019-04-23T19:29:36.396Z,6.23
2019-04-23T19:34:24.760Z,6.47
2019-04-23T19:36:49.166Z,6.30
2019-04-23T19:39:11.540Z,6.20
2019-04-23T19:41:42.011Z,6.27
2019-04-23T19:44:03.435Z,6.23
2019-04-23T19:46:44.999Z,5.93
2019-04-23T19:48:58.002Z,6.13
2019-04-23T19:51:17.160Z,6.70
2019-04-23T19:56:29.208Z,6.67
2019-04-23T20:06:12.108Z,6.40
2019-04-23T20:08:34.005Z,6.10
2019-04-23T20:10:46.321Z,6.70
2019-04-23T20:13:21.702Z,6.23
2019-04-23T20:15:53.445Z,5.83
2019-04-23T20:18:00.935Z,6.23
2019-04-23T20:20:33.726Z,6.33
2019-04-23T20:25:53.744Z,6.20
2019-04-23T20:28:01.977Z,6.60
2019-04-23T20:37:59.520Z,6.87
2019-04-23T20:42:27.184Z,6.57
2019-04-23T20:47:15.571Z,6.80
2019-04-23T20:52:13.680Z,6.67
2019-04-23T20:57:17.919Z,6.50
2019-04-23T20:59:43.856Z,6.43
2019-04-23T21:02:10.222Z,6.63
2019-04-23T21:04:28.135Z,6.83
2019-04-23T21:06:57.661Z,6.90
2019-04-23T21:09:43.854Z,7.27
2019-04-23T21:11:47.917Z,6.83
2019-04-23T21:14:33.560Z,6.60
2019-04-23T21:16:37.530Z,7.10
2019-04-23T21:19:02.621Z,6.50
2019-04-23T21:21:33.072Z,7.53
2019-04-23T21:26:17.440Z,7.43
2019-04-23T21:28:43.704Z,6.83
2019-04-23T21:33:59.266Z,7.33
2019-04-23T21:36:13.894Z,7.17
2019-04-23T21:38:46.417Z,7.90
2019-04-23T21:41:05.536Z,7.03
2019-04-23T21:43:39.998Z,8.00
2019-04-23T21:48:15.625Z,8.07
2019-04-23T21:53:06.814Z,7.53
2019-04-23T21:55:42.526Z,7.50
2019-04-23T21:58:07.254Z,6.87
2019-04-23T22:00:36.321Z,7.97
2019-04-23T22:05:25.210Z,8.40
2019-04-23T22:10:12.091Z,8.23
2019-04-23T22:12:46.776Z,7.70
2019-04-23T22:15:22.243Z,7.83
2019-04-23T22:17:32.541Z,8.27
2019-04-23T22:20:05.644Z,7.90
2019-04-23T22:22:31.977Z,8.47
2019-04-23T22:24:48.529Z,8.40
2019-04-23T22:27:09.826Z,8.17
2019-04-23T22:29:42.034Z,7.77
2019-04-23T22:32:02.412Z,7.97
2019-04-23T22:39:23.653Z,8.63
2019-04-23T22:41:58.251Z,8.97
2019-04-23T22:44:39.969Z,8.43
2019-04-23T22:46:52.044Z,8.13
2019-04-23T22:51:47.551Z,8.00
2019-04-23T22:54:05.396Z,8.87
2019-04-23T22:56:35.270Z,7.97
2019-04-23T22:59:18.606Z,7.87
2019-04-23T23:03:51.295Z,8.00
2019-04-23T23:08:56.004Z,8.97
2019-04-23T23:11:08.526Z,9.03
2019-04-23T23:13:48.139Z,8.20
2019-04-23T23:16:01.086Z,8.77
2019-04-23T23:18:52.451Z,8.77
2019-04-23T23:20:55.861Z,8.03
2019-04-23T23:23:18.016Z,8.07
2019-04-23T23:28:13.357Z,8.23
2019-04-23T23:30:50.077Z,8.37
2019-04-23T23:33:03.842Z,8.00
2019-04-23T23:35:31.218Z,7.80
2019-04-23T23:38:02.579Z,8.87
2019-04-23T23:40:25.660Z,8.17
2019-04-23T23:42:58.303Z,8.77
2019-04-23T23:45:18.418Z,8.50
2019-04-23T23:47:38.093Z,8.03
2019-04-23T23:50:16.230Z,8.67
2019-04-23T23:52:40.988Z,9.00
2019-04-23T23:55:03.075Z,8.40
